createdAt,value
2022-12-08T04:42:39.156Z,100293.91
2022-12-08T04:45:42.965Z,100301.72
2022-12-08T04:48:45.506Z,100300.03
2022-12-08T04:51:49.026Z,100292.00
2022-12-08T04:54:51.527Z,100292.00
2022-12-08T04:57:54.384Z,100292.34
2022-12-08T05:00:56.986Z,100295.06
2022-12-08T05:03:59.787Z,100292.56
2022-12-08T05:07:02.391Z,100294.47
2022-12-08T05:10:06.188Z,100290.12
2022-12-08T05:13:09.836Z,100304.94
2022-12-08T05:16:14.557Z,100296.66
2022-12-08T05:19:18.167Z,100298.59
2022-12-08T05:22:20.973Z,100301.84
2022-12-08T05:25:23.457Z,100304.03
2022-12-08T05:28:43.312Z,100303.81
2022-12-08T05:31:47.131Z,100301.16
2022-12-08T05:34:49.990Z,100297.47
2022-12-08T05:37:53.978Z,100297.91
2022-12-08T05:40:56.868Z,100294.91
2022-12-08T05:43:59.322Z,100278.94
2022-12-08T05:47:02.145Z,100284.09
2022-12-08T05:50:06.106Z,100277.34
2022-12-08T05:53:09.258Z,100273.97
2022-12-08T05:56:12.349Z,100276.44
2022-12-08T05:59:16.619Z,100275.59
2022-12-08T06:02:19.269Z,100292.53
2022-12-08T06:05:22.242Z,100291.09
2022-12-08T06:08:24.918Z,100295.97
2022-12-08T06:11:30.327Z,100292.72
2022-12-08T06:14:32.841Z,100296.62
2022-12-08T06:17:35.916Z,100300.50
2022-12-08T06:20:41.194Z,100303.50
2022-12-08T06:23:44.677Z,100311.06
2022-12-08T06:26:47.234Z,100308.56
2022-12-08T06:29:50.007Z,100314.09
2022-12-08T06:32:52.893Z,100306.91
2022-12-08T06:36:05.309Z,100307.53
2022-12-08T06:39:09.813Z,100321.50
2022-12-08T06:42:31.258Z,100312.34
2022-12-08T06:45:33.870Z,100310.44
2022-12-08T06:48:36.773Z,100314.81
2022-12-08T06:51:39.902Z,100310.59
2022-12-08T06:54:42.726Z,100315.78
2022-12-08T06:57:45.281Z,100316.53
2022-12-08T07:00:48.216Z,100315.69
2022-12-08T07:03:50.847Z,100313.09
2022-12-08T07:06:53.731Z,100317.97
2022-12-08T07:09:56.619Z,100314.13
2022-12-08T07:12:59.511Z,100315.59
2022-12-08T07:16:05.639Z,100317.50
2022-12-08T07:19:08.378Z,100318.03
2022-12-08T07:22:11.163Z,100309.94
2022-12-08T07:25:13.917Z,100314.03
2022-12-08T07:28:16.634Z,100309.81
2022-12-08T07:31:24.900Z,100317.16
2022-12-08T07:34:27.968Z,100316.19
2022-12-08T07:37:37.024Z,100319.56
2022-12-08T07:40:41.630Z,100307.03
2022-12-08T07:43:45.022Z,100307.03
2022-12-08T07:46:47.547Z,100306.78
2022-12-08T07:49:50.463Z,100302.81
2022-12-08T07:52:53.143Z,100307.53
2022-12-08T07:55:56.021Z,100306.78
2022-12-08T07:58:58.701Z,100299.06
2022-12-08T08:02:22.988Z,100300.25
2022-12-08T08:05:24.568Z,100306.41
2022-12-08T08:08:27.193Z,100302.97
2022-12-08T08:11:30.071Z,100292.72
2022-12-08T08:14:32.577Z,100300.75
2022-12-08T08:17:36.908Z,100297.69
2022-12-08T08:20:43.201Z,100302.84
2022-12-08T08:23:46.076Z,100298.28
2022-12-08T08:26:50.738Z,100305.84
2022-12-08T08:29:53.934Z,100297.00
2022-12-08T08:32:56.997Z,100294.91
2022-12-08T08:36:00.023Z,100292.19
2022-12-08T08:39:03.766Z,100294.87
2022-12-08T08:42:06.527Z,100296.06
2022-12-08T08:45:09.561Z,100299.56
2022-12-08T08:48:12.397Z,100299.25
2022-12-08T08:51:15.471Z,100292.84
2022-12-08T08:54:18.321Z,100290.94
2022-12-08T08:57:25.541Z,100289.13
2022-12-08T09:00:29.295Z,100295.56
2022-12-08T09:03:31.934Z,100292.13
2022-12-08T09:06:34.798Z,100285.31
2022-12-08T09:09:38.465Z,100273.19
2022-12-08T09:12:41.467Z,100276.56
2022-12-08T09:15:44.064Z,100285.56
2022-12-08T09:18:49.677Z,100284.25
2022-12-08T09:21:52.257Z,100287.47
2022-12-08T09:24:55.119Z,100264.50
2022-12-08T09:27:57.543Z,100254.56
2022-12-08T09:31:01.825Z,100257.16
2022-12-08T09:34:05.335Z,100263.31
2022-12-08T09:37:08.160Z,100270.00
2022-12-08T09:40:18.583Z,100272.09
2022-12-08T09:43:43.344Z,100264.56
2022-12-08T09:46:48.475Z,100258.81
2022-12-08T09:49:55.888Z,100248.78
2022-12-08T09:52:58.420Z,100244.59
2022-12-08T09:56:06.902Z,100232.16
2022-12-08T09:59:09.329Z,100221.78
2022-12-08T10:02:28.293Z,100220.97
2022-12-08T10:05:37.758Z,100216.63
2022-12-08T10:08:47.989Z,100215.22
2022-12-08T10:12:13.743Z,100225.88
2022-12-08T10:15:57.540Z,100225.59
2022-12-08T10:19:15.616Z,100237.50
2022-12-08T10:22:24.768Z,100243.84
2022-12-08T10:25:41.430Z,100242.44
2022-12-08T10:28:46.759Z,100237.81
2022-12-08T10:31:49.654Z,100219.28
2022-12-08T10:35:02.610Z,100225.44
2022-12-08T10:38:06.521Z,100212.25
2022-12-08T10:41:12.076Z,100200.31
2022-12-08T10:44:16.838Z,100197.91
2022-12-08T10:47:22.688Z,100184.88
2022-12-08T10:50:37.024Z,100180.22
2022-12-08T10:53:46.044Z,100178.91
2022-12-08T10:56:57.693Z,100169.72
2022-12-08T11:00:00.291Z,100169.13
2022-12-08T11:03:05.171Z,100162.34
2022-12-08T11:06:25.475Z,100154.47
2022-12-08T11:09:37.237Z,100149.94
2022-12-08T11:12:44.138Z,100151.16
2022-12-08T11:15:47.407Z,100144.19
2022-12-08T11:18:56.983Z,100146.56
2022-12-08T11:21:59.807Z,100139.97
2022-12-08T11:25:17.599Z,100135.56
2022-12-08T11:28:24.353Z,100127.88
2022-12-08T11:31:49.858Z,100125.19
2022-12-08T11:35:04.493Z,100114.72
2022-12-08T11:38:21.680Z,100110.78
2022-12-08T11:41:32.098Z,100103.62
2022-12-08T11:44:50.435Z,100087.91
2022-12-08T11:48:11.671Z,100076.66
2022-12-08T11:51:29.749Z,100065.88
2022-12-08T11:54:45.330Z,100052.12
2022-12-08T11:57:48.858Z,100054.41
2022-12-08T12:00:51.838Z,100065.25
2022-12-08T12:04:14.092Z,100066.88
2022-12-08T12:07:26.196Z,100063.00
2022-12-08T12:11:36.990Z,100048.53
2022-12-08T12:15:05.269Z,100057.06
2022-12-08T12:18:46.552Z,100062.53
2022-12-08T12:21:55.069Z,100059.84
2022-12-08T12:24:57.990Z,100065.47
2022-12-08T12:28:05.364Z,100065.25
2022-12-08T12:31:18.441Z,100062.62
2022-12-08T12:34:25.730Z,100066.12
2022-12-08T12:37:41.756Z,100063.19
2022-12-08T12:40:44.623Z,100065.72
2022-12-08T12:44:12.421Z,100064.91
2022-12-08T12:47:56.666Z,100070.38
2022-12-08T12:50:59.922Z,100062.91
2022-12-08T12:54:21.006Z,100062.03
2022-12-08T12:57:33.856Z,100063.13
2022-12-08T13:00:37.359Z,100049.28
2022-12-08T13:04:04.221Z,100044.47
2022-12-08T13:07:06.894Z,100042.47
2022-12-08T13:10:09.686Z,100042.62
2022-12-08T13:13:12.704Z,100046.81
2022-12-08T13:16:22.613Z,100051.03
2022-12-08T13:19:25.796Z,100034.06
2022-12-08T13:22:47.115Z,100044.44
2022-12-08T13:25:54.001Z,100037.03
2022-12-08T13:29:01.422Z,100039.69
2022-12-08T13:32:24.937Z,100030.44
2022-12-08T13:35:28.368Z,100029.59
2022-12-08T13:38:35.568Z,100028.06
2022-12-08T13:41:44.130Z,100032.84
2022-12-08T13:49:09.952Z,100038.06
2022-12-08T13:58:44.524Z,100039.63
2022-12-08T14:01:49.800Z,100033.87
2022-12-08T14:08:59.338Z,100029.41
2022-12-08T14:12:06.961Z,100038.78
2022-12-08T14:15:14.343Z,100029.66
2022-12-08T14:18:26.508Z,100020.44
2022-12-08T14:21:34.443Z,100024.38
2022-12-08T14:24:39.276Z,100024.50
2022-12-08T14:27:42.019Z,100032.78
2022-12-08T14:30:45.114Z,100035.81
2022-12-08T14:33:50.546Z,100032.78
2022-12-08T14:36:56.163Z,100037.09
2022-12-08T14:40:02.681Z,100038.50
2022-12-08T14:43:12.426Z,100041.88
2022-12-08T14:46:23.166Z,100034.59
2022-12-08T14:49:34.682Z,100038.22
2022-12-08T14:52:44.114Z,100038.94
2022-12-08T14:55:48.494Z,100030.25
2022-12-08T14:59:06.622Z,100031.09
2022-12-08T15:02:25.582Z,100035.31
2022-12-08T15:05:31.970Z,100026.19
2022-12-08T15:08:51.222Z,100026.63
2022-12-08T15:12:26.835Z,100022.28
2022-12-08T15:15:31.764Z,100015.53
2022-12-08T15:18:40.983Z,100023.53
2022-12-08T15:21:45.497Z,100008.97
2022-12-08T15:24:48.103Z,100011.88
2022-12-08T15:27:53.156Z,100014.97
2022-12-08T15:30:56.357Z,100009.50
2022-12-08T15:33:59.215Z,100019.19
2022-12-08T15:37:03.992Z,100017.66
2022-12-08T15:40:17.172Z,100014.16
2022-12-08T15:43:20.344Z,100009.09
2022-12-08T15:46:23.313Z,100001.41
2022-12-08T15:49:26.878Z,99994.81
2022-12-08T15:52:29.672Z,99999.59
2022-12-08T15:55:38.487Z,99987.28
2022-12-08T15:58:58.682Z,99982.53
2022-12-08T16:02:17.912Z,99989.50
2022-12-08T16:05:46.565Z,99988.50
2022-12-08T16:09:06.140Z,99990.34
2022-12-08T16:16:11.085Z,99991.75
2022-12-08T16:19:14.662Z,100001.56
2022-12-08T16:26:16.216Z,99992.87
2022-12-08T16:29:06.384Z,99997.06
2022-12-08T16:32:10.053Z,99990.78
2022-12-08T16:35:14.497Z,99993.44
2022-12-08T16:38:18.785Z,100004.47
2022-12-08T16:41:39.903Z,99995.94
2022-12-08T16:44:43.126Z,99999.84
2022-12-08T16:47:48.634Z,99978.37
2022-12-08T16:50:51.533Z,99976.56
2022-12-08T16:53:54.444Z,99982.69
2022-12-08T16:56:57.333Z,99983.81
2022-12-08T16:59:59.971Z,99982.00
